createdAt,value
2017-11-22T00:00:03.830Z,7.10
2017-11-22T00:02:32.172Z,7.20
2017-11-22T00:04:59.603Z,7.30
2017-11-22T00:07:27.010Z,7.30
2017-11-22T00:09:54.406Z,7.20
2017-11-22T00:12:21.823Z,7.40
2017-11-22T00:14:49.242Z,7.40
2017-11-22T00:17:16.650Z,7.30
2017-11-22T00:19:44.827Z,7.30
2017-11-22T00:22:13.002Z,7.20
2017-11-22T00:24:41.633Z,7.20
2017-11-22T00:27:09.031Z,7.10
2017-11-22T00:29:37.462Z,7.20
2017-11-22T00:32:04.874Z,7.20
2017-11-22T00:34:33.051Z,7.20
2017-11-22T00:37:01.571Z,7.20
2017-11-22T00:39:28.981Z,7.20
2017-11-22T00:41:56.386Z,7.30
2017-11-22T00:44:23.807Z,7.40
2017-11-22T00:46:52.094Z,7.50
2017-11-22T00:49:19.494Z,7.40
2017-11-22T00:51:46.911Z,7.40
2017-11-22T00:54:14.323Z,7.40
2017-11-22T00:56:41.732Z,7.50
2017-11-22T00:59:09.148Z,7.50
2017-11-22T01:01:37.332Z,7.50
2017-11-22T01:04:05.523Z,7.60
2017-11-22T01:06:32.927Z,7.60
2017-11-22T01:09:00.355Z,7.70
2017-11-22T01:11:27.767Z,7.60
2017-11-22T01:13:55.957Z,7.60
2017-11-22T01:16:24.127Z,7.70
2017-11-22T01:18:52.298Z,7.50
2017-11-22T01:21:20.783Z,7.50
2017-11-22T01:23:48.969Z,7.50
2017-11-22T01:26:16.376Z,7.50
2017-11-22T01:28:43.797Z,7.60
2017-11-22T01:31:11.206Z,7.60
2017-11-22T01:33:39.378Z,7.70
2017-11-22T01:36:06.790Z,7.60
2017-11-22T01:38:34.195Z,7.60
2017-11-22T01:41:02.383Z,7.40
2017-11-22T01:43:30.555Z,7.30
2017-11-22T01:45:58.734Z,7.20
2017-11-22T01:48:26.143Z,7.20
2017-11-22T01:50:53.555Z,7.20
2017-11-22T01:53:20.960Z,7.20
2017-11-22T01:55:48.382Z,7.20
2017-11-22T01:58:15.784Z,7.30
2017-11-22T02:00:53.139Z,7.20
2017-11-22T02:03:20.551Z,7.10
2017-11-22T02:05:48.740Z,7.20
2017-11-22T02:08:16.162Z,7.20
2017-11-22T02:10:43.826Z,7.20
2017-11-22T02:13:11.244Z,7.20
2017-11-22T02:15:38.650Z,7.20
2017-11-22T02:18:06.835Z,7.30
2017-11-22T02:20:34.254Z,7.20
2017-11-22T02:23:01.667Z,7.30
2017-11-22T02:25:29.071Z,7.30
2017-11-22T02:27:56.783Z,7.30
2017-11-22T02:30:24.195Z,7.40
2017-11-22T02:32:51.605Z,7.40
2017-11-22T02:35:19.242Z,7.50
2017-11-22T02:37:46.771Z,7.50
2017-11-22T02:40:14.182Z,7.40
2017-11-22T02:42:41.594Z,7.40
2017-11-22T02:45:09.943Z,7.40
2017-11-22T02:47:37.355Z,7.40
2017-11-22T02:50:04.775Z,7.50
2017-11-22T02:52:32.965Z,7.50
2017-11-22T02:55:01.168Z,7.50
2017-11-22T02:57:28.834Z,7.50
2017-11-22T02:59:56.332Z,7.50
2017-11-22T03:02:23.743Z,7.60
2017-11-22T03:04:51.164Z,7.60
2017-11-22T03:07:18.992Z,7.70
2017-11-22T03:09:46.395Z,7.70
2017-11-22T03:12:13.815Z,7.80
2017-11-22T03:14:41.575Z,7.80
2017-11-22T03:17:14.465Z,7.80
2017-11-22T03:19:41.868Z,7.80
2017-11-22T03:22:09.345Z,7.90
2017-11-22T03:24:36.763Z,7.90
2017-11-22T03:27:04.958Z,8.00
2017-11-22T03:29:32.533Z,7.90
2017-11-22T03:31:59.961Z,8.00
2017-11-22T03:34:28.126Z,8.00
2017-11-22T03:36:56.311Z,8.00
2017-11-22T03:39:24.490Z,8.10
2017-11-22T03:41:51.903Z,8.10
2017-11-22T03:44:19.332Z,8.20
2017-11-22T03:46:46.744Z,8.20
2017-11-22T03:49:14.932Z,8.10
2017-11-22T03:51:48.754Z,7.90
2017-11-22T03:54:16.171Z,7.90
2017-11-22T03:56:44.345Z,8.10
2017-11-22T03:59:11.758Z,8.10
2017-11-22T04:01:45.154Z,8.10
2017-11-22T04:04:21.255Z,8.20
2017-11-22T04:06:49.731Z,8.30
2017-11-22T04:09:17.913Z,8.30
2017-11-22T04:11:46.083Z,8.20
2017-11-22T04:14:14.270Z,8.30
2017-11-22T04:16:42.714Z,8.10
2017-11-22T04:19:16.525Z,8.00
2017-11-22T04:21:43.927Z,8.00
2017-11-22T04:24:11.336Z,7.90
2017-11-22T04:26:38.746Z,8.00
2017-11-22T04:29:06.720Z,8.10
2017-11-22T04:31:34.786Z,8.20
2017-11-22T04:34:02.200Z,8.20
2017-11-22T04:36:29.607Z,8.30
2017-11-22T04:38:57.013Z,8.40
2017-11-22T04:41:24.767Z,8.40
2017-11-22T04:43:52.183Z,8.40
2017-11-22T04:46:19.587Z,8.40
2017-11-22T04:48:47.007Z,8.30
2017-11-22T04:51:14.746Z,8.30
2017-11-22T04:53:42.160Z,8.30
2017-11-22T04:56:09.572Z,8.30
2017-11-22T04:58:36.983Z,8.30
2017-11-22T05:01:05.162Z,8.40
2017-11-22T05:03:33.342Z,8.40
2017-11-22T05:06:01.534Z,8.40
2017-11-22T05:08:29.488Z,8.40
2017-11-22T05:10:57.712Z,8.40
2017-11-22T05:13:25.124Z,8.40
2017-11-22T05:15:52.544Z,8.40
2017-11-22T05:18:19.950Z,8.40
2017-11-22T05:20:47.359Z,8.40
2017-11-22T05:23:14.784Z,8.40
2017-11-22T05:25:42.200Z,8.30
2017-11-22T05:28:09.620Z,8.20
2017-11-22T05:30:37.039Z,8.20
2017-11-22T05:33:04.454Z,8.30
2017-11-22T05:35:32.632Z,8.20
2017-11-22T05:38:01.232Z,8.30
2017-11-22T05:40:28.916Z,8.30
2017-11-22T05:42:56.402Z,8.30
2017-11-22T05:45:23.898Z,8.30
2017-11-22T05:47:52.887Z,8.30
2017-11-22T05:50:21.067Z,8.20
2017-11-22T05:52:49.267Z,8.30
2017-11-22T05:55:16.678Z,8.30
2017-11-22T05:57:44.091Z,8.40
2017-11-22T06:00:13.944Z,8.30
2017-11-22T06:02:41.355Z,8.20
2017-11-22T06:05:08.782Z,8.20
2017-11-22T06:07:37.131Z,8.20
2017-11-22T06:10:04.548Z,8.20
2017-11-22T06:12:31.994Z,8.30
2017-11-22T06:14:59.411Z,8.30
2017-11-22T06:17:27.597Z,8.20
2017-11-22T06:19:55.777Z,8.20
2017-11-22T06:22:23.196Z,8.20
2017-11-22T06:24:50.602Z,8.20
2017-11-22T06:27:18.014Z,8.30
2017-11-22T06:29:56.992Z,8.30
2017-11-22T06:32:24.403Z,8.30
2017-11-22T06:34:51.828Z,8.40
2017-11-22T06:37:19.242Z,8.50
2017-11-22T06:39:47.407Z,8.40
2017-11-22T06:42:14.822Z,8.30
2017-11-22T06:44:42.234Z,8.20
2017-11-22T06:47:09.651Z,8.20
2017-11-22T06:49:37.063Z,8.20
2017-11-22T06:52:04.493Z,8.10
2017-11-22T06:54:32.663Z,8.10
2017-11-22T06:57:00.847Z,8.00
2017-11-22T06:59:28.260Z,8.00
2017-11-22T07:01:58.506Z,7.90
2017-11-22T07:04:26.677Z,7.90
2017-11-22T07:06:54.864Z,7.80
2017-11-22T07:09:23.039Z,7.90
2017-11-22T07:11:51.248Z,7.90
2017-11-22T07:14:18.645Z,7.90
2017-11-22T07:16:51.630Z,7.80
2017-11-22T07:19:19.046Z,7.90
2017-11-22T07:21:47.232Z,8.00
2017-11-22T07:24:14.651Z,8.00
2017-11-22T07:26:42.050Z,8.00
2017-11-22T07:29:09.484Z,7.90
2017-11-22T07:31:36.887Z,7.90
2017-11-22T07:34:04.319Z,7.90
2017-11-22T07:36:37.379Z,7.90
2017-11-22T07:39:04.793Z,7.80
2017-11-22T07:41:32.967Z,8.20
2017-11-22T07:44:01.151Z,8.10
2017-11-22T07:46:29.327Z,7.90
2017-11-22T07:48:57.507Z,7.90
2017-11-22T07:51:30.572Z,7.90
2017-11-22T07:53:57.988Z,8.00
2017-11-22T07:56:25.390Z,8.30
2017-11-22T07:58:53.574Z,8.90
2017-11-22T08:01:21.759Z,9.00
2017-11-22T08:03:49.166Z,9.00
2017-11-22T08:06:16.582Z,9.30
2017-11-22T08:08:43.998Z,9.30
2017-11-22T08:11:12.193Z,9.70
2017-11-22T08:13:40.364Z,9.60
2017-11-22T08:16:08.548Z,9.50
2017-11-22T08:18:35.959Z,9.50
2017-11-22T08:21:03.375Z,9.50
2017-11-22T08:23:30.787Z,9.70
2017-11-22T08:25:58.974Z,10.30
2017-11-22T08:28:27.151Z,10.40
2017-11-22T08:30:55.339Z,10.30
2017-11-22T08:33:22.750Z,10.30
2017-11-22T08:35:50.176Z,10.20
2017-11-22T08:38:17.591Z,10.40
2017-11-22T08:40:45.764Z,11.20
2017-11-22T08:43:19.584Z,11.40
2017-11-22T08:45:46.995Z,11.30
2017-11-22T08:48:14.418Z,11.50
2017-11-22T08:50:41.827Z,12.30
2017-11-22T08:53:10.019Z,13.30
2017-11-22T08:55:43.168Z,13.30
2017-11-22T08:58:16.579Z,13.60
2017-11-22T09:00:43.991Z,14.20
2017-11-22T09:03:14.324Z,14.90
2017-11-22T09:05:48.227Z,15.20
2017-11-22T09:08:15.638Z,15.80
2017-11-22T09:10:43.828Z,17.00
2017-11-22T09:13:17.014Z,17.00
2017-11-22T09:15:44.440Z,17.60
2017-11-22T09:18:12.783Z,17.60
2017-11-22T09:20:40.199Z,17.40
2017-11-22T09:23:08.379Z,17.20
2017-11-22T09:25:36.600Z,17.20
2017-11-22T09:28:04.021Z,16.90
2017-11-22T09:30:31.431Z,17.40
2017-11-22T09:33:13.504Z,18.20
2017-11-22T09:35:40.914Z,18.40
2017-11-22T09:38:09.104Z,18.60
2017-11-22T09:40:36.515Z,18.60
2017-11-22T09:43:03.939Z,19.10
2017-11-22T09:45:31.364Z,19.70
2017-11-22T09:47:58.785Z,20.00
2017-11-22T09:50:26.192Z,20.20
2017-11-22T09:52:53.604Z,19.90
2017-11-22T09:55:21.015Z,19.00
2017-11-22T09:57:48.444Z,17.60
2017-11-22T10:00:15.851Z,17.10
2017-11-22T10:02:43.268Z,16.80
2017-11-22T10:05:10.684Z,16.70
2017-11-22T10:07:38.106Z,16.40
2017-11-22T10:10:05.524Z,16.40
2017-11-22T10:12:32.943Z,17.30
2017-11-22T10:15:00.365Z,17.30
2017-11-22T10:17:31.724Z,16.60
2017-11-22T10:20:04.011Z,16.40
2017-11-22T10:22:37.080Z,17.00
2017-11-22T10:25:10.425Z,17.80
2017-11-22T10:27:43.472Z,19.00
2017-11-22T10:30:12.837Z,19.00
2017-11-22T10:32:55.127Z,19.20
2017-11-22T10:35:23.306Z,18.50
2017-11-22T10:37:50.730Z,18.50
2017-11-22T10:40:18.142Z,18.90
2017-11-22T10:42:45.559Z,19.10
2017-11-22T10:45:13.744Z,19.50
2017-11-22T10:47:41.940Z,20.00
2017-11-22T10:50:09.357Z,20.00
2017-11-22T10:52:36.771Z,20.50
2017-11-22T10:55:04.195Z,20.70
2017-11-22T10:57:31.607Z,20.60
2017-11-22T10:59:59.037Z,20.60
2017-11-22T11:02:26.455Z,20.20
2017-11-22T11:04:54.645Z,19.00
2017-11-22T11:07:22.055Z,19.00
2017-11-22T11:09:49.473Z,16.50
2017-11-22T11:12:16.880Z,15.30
2017-11-22T11:14:45.068Z,15.40
2017-11-22T11:17:13.253Z,14.90
2017-11-22T11:19:40.667Z,14.90
2017-11-22T11:22:08.083Z,15.10
2017-11-22T11:24:35.494Z,15.20
2017-11-22T11:27:02.906Z,15.60
2017-11-22T11:29:30.319Z,16.00
2017-11-22T11:31:58.503Z,16.00
2017-11-22T11:34:26.680Z,15.80
2017-11-22T11:36:54.096Z,15.80
2017-11-22T11:39:21.516Z,15.40
2017-11-22T11:41:48.931Z,15.10
2017-11-22T11:44:17.114Z,15.10
2017-11-22T11:46:45.333Z,15.40
2017-11-22T11:49:12.736Z,15.30
2017-11-22T11:51:40.915Z,16.10
2017-11-22T11:54:09.092Z,16.20
2017-11-22T11:56:37.293Z,15.80
2017-11-22T11:59:04.703Z,15.80
2017-11-22T12:01:32.137Z,15.60
2017-11-22T12:03:59.535Z,15.90
2017-11-22T12:06:27.714Z,16.10
2017-11-22T12:08:55.128Z,16.10
2017-11-22T12:11:22.570Z,16.00
2017-11-22T12:13:49.981Z,15.90
2017-11-22T12:16:17.394Z,16.00
2017-11-22T12:18:44.816Z,15.90
2017-11-22T12:21:14.039Z,16.60
2017-11-22T12:23:41.464Z,17.00
2017-11-22T12:26:08.868Z,16.90
2017-11-22T12:28:36.306Z,17.00
2017-11-22T12:31:03.711Z,16.90
2017-11-22T12:33:31.892Z,18.20
2017-11-22T12:35:59.307Z,18.20
2017-11-22T12:38:26.729Z,18.40
2017-11-22T12:40:54.138Z,17.90
2017-11-22T12:43:22.319Z,17.00
2017-11-22T12:45:50.503Z,16.90
2017-11-22T12:48:17.923Z,16.90
2017-11-22T12:50:45.345Z,16.80
2017-11-22T12:53:12.770Z,17.10
2017-11-22T12:55:40.947Z,17.10
2017-11-22T12:58:12.293Z,17.10
2017-11-22T13:00:40.470Z,17.20
2017-11-22T13:03:08.649Z,17.70
2017-11-22T13:05:36.067Z,17.70
2017-11-22T13:08:03.483Z,17.90
2017-11-22T13:10:33.827Z,17.70
2017-11-22T13:13:01.236Z,17.70
2017-11-22T13:15:28.651Z,17.80
2017-11-22T13:17:56.070Z,18.60
2017-11-22T13:20:23.488Z,19.80
2017-11-22T13:22:51.667Z,19.60
2017-11-22T13:25:19.855Z,18.30
2017-11-22T13:27:47.263Z,18.20
2017-11-22T13:30:14.692Z,17.20
2017-11-22T13:32:42.098Z,16.80
2017-11-22T13:35:10.280Z,16.60
2017-11-22T13:37:38.460Z,16.80
2017-11-22T13:40:06.648Z,16.80
2017-11-22T13:42:34.058Z,16.80
2017-11-22T13:45:01.476Z,17.10
2017-11-22T13:47:28.889Z,17.80
2017-11-22T13:49:57.072Z,17.80
2017-11-22T13:52:25.259Z,17.30
2017-11-22T13:54:53.431Z,16.10
2017-11-22T13:57:20.853Z,16.10
2017-11-22T13:59:48.257Z,15.00
2017-11-22T14:02:15.690Z,14.40
2017-11-22T14:04:43.858Z,14.70
2017-11-22T14:07:12.060Z,14.80
2017-11-22T14:09:39.471Z,14.80
2017-11-22T14:12:06.887Z,15.10
2017-11-22T14:14:34.295Z,15.10
2017-11-22T14:17:02.480Z,16.20
2017-11-22T14:19:30.671Z,16.40
2017-11-22T14:21:58.091Z,16.40
2017-11-22T14:24:25.514Z,16.70
2017-11-22T14:26:52.926Z,17.00
2017-11-22T14:29:21.107Z,18.10
2017-11-22T14:31:48.519Z,18.10
2017-11-22T14:34:15.932Z,18.00
2017-11-22T14:36:43.340Z,18.00
2017-11-22T14:39:10.755Z,17.90
2017-11-22T14:41:38.163Z,18.10
2017-11-22T14:44:06.354Z,17.60
2017-11-22T14:46:34.535Z,17.30
2017-11-22T14:49:01.962Z,17.30
2017-11-22T14:51:29.371Z,15.60
2017-11-22T14:53:56.791Z,14.60
2017-11-22T14:56:24.974Z,13.70
2017-11-22T14:58:52.386Z,13.70
2017-11-22T15:01:19.808Z,12.90
2017-11-22T15:03:47.225Z,11.90
2017-11-22T15:06:14.640Z,11.10
2017-11-22T15:08:42.063Z,10.40
2017-11-22T15:11:09.486Z,10.10
2017-11-22T15:13:36.888Z,10.10
2017-11-22T15:16:04.313Z,10.20
2017-11-22T15:18:32.491Z,10.40
2017-11-22T15:21:00.671Z,10.50
2017-11-22T15:23:28.074Z,10.40
2017-11-22T15:25:55.495Z,10.40
2017-11-22T15:28:22.912Z,10.20
2017-11-22T15:30:50.323Z,10.00
2017-11-22T15:33:17.740Z,9.90
2017-11-22T15:35:45.907Z,9.50
2017-11-22T15:38:14.091Z,9.40
2017-11-22T15:40:42.277Z,9.20
2017-11-22T15:43:09.700Z,9.20
2017-11-22T15:45:37.095Z,9.10
2017-11-22T15:48:04.511Z,9.00
2017-11-22T15:50:32.693Z,8.80
2017-11-22T15:53:01.623Z,8.60
2017-11-22T15:55:29.015Z,8.60
2017-11-22T15:57:56.449Z,8.40
2017-11-22T16:00:23.855Z,8.30
2017-11-22T16:02:52.028Z,8.20
2017-11-22T16:05:20.220Z,8.00
2017-11-22T16:07:47.623Z,7.90
2017-11-22T16:10:15.048Z,7.80
2017-11-22T16:12:42.449Z,7.70
2017-11-22T16:15:09.865Z,7.70
2017-11-22T16:17:37.271Z,7.80
2017-11-22T16:20:05.459Z,8.00
2017-11-22T16:22:33.627Z,8.00
2017-11-22T16:25:01.807Z,8.00
2017-11-22T16:27:29.992Z,7.90
2017-11-22T16:29:58.180Z,7.90
2017-11-22T16:32:25.578Z,7.80
2017-11-22T16:34:52.991Z,8.00
2017-11-22T16:37:20.407Z,8.10
2017-11-22T16:39:48.632Z,8.10
2017-11-22T16:42:16.079Z,8.10
2017-11-22T16:44:43.495Z,8.10
2017-11-22T16:47:11.683Z,7.70
2017-11-22T16:49:39.858Z,7.20
2017-11-22T16:52:08.066Z,6.70
2017-11-22T16:54:35.479Z,6.70
2017-11-22T16:57:03.656Z,6.50
2017-11-22T16:59:31.843Z,7.10
2017-11-22T17:01:59.259Z,7.10
2017-11-22T17:04:26.664Z,7.30
2017-11-22T17:06:54.067Z,7.10
2017-11-22T17:09:21.478Z,7.40
2017-11-22T17:11:48.895Z,7.50
2017-11-22T17:14:17.135Z,6.90
2017-11-22T17:16:44.538Z,6.90
2017-11-22T17:19:12.738Z,6.80
2017-11-22T17:21:40.916Z,6.80
2017-11-22T17:24:08.318Z,6.80
2017-11-22T17:26:35.726Z,6.80
2017-11-22T17:29:03.158Z,6.70
2017-11-22T17:31:31.327Z,7.00
2017-11-22T17:33:59.510Z,7.20
2017-11-22T17:36:27.685Z,7.30
2017-11-22T17:38:55.872Z,7.40
2017-11-22T17:41:24.061Z,7.60
2017-11-22T17:43:51.499Z,7.60
2017-11-22T17:46:18.915Z,7.70
2017-11-22T17:48:46.338Z,7.70
2017-11-22T17:51:14.373Z,7.70
2017-11-22T17:53:42.527Z,7.30
2017-11-22T17:56:10.711Z,7.20
2017-11-22T17:58:38.899Z,7.20
2017-11-22T18:01:07.070Z,7.30
2017-11-22T18:03:35.252Z,7.40
2017-11-22T18:06:03.427Z,7.60
2017-11-22T18:08:30.835Z,7.60
2017-11-22T18:10:58.267Z,7.80
2017-11-22T18:13:25.663Z,8.00
2017-11-22T18:15:53.082Z,8.20
2017-11-22T18:18:20.495Z,8.30
2017-11-22T18:20:48.679Z,8.60
2017-11-22T18:23:16.854Z,8.60
2017-11-22T18:25:44.262Z,8.60
2017-11-22T18:28:11.671Z,8.70
2017-11-22T18:30:39.135Z,8.80
2017-11-22T18:33:06.559Z,8.90
2017-11-22T18:35:34.735Z,8.80
2017-11-22T18:38:02.151Z,8.80
2017-11-22T18:40:29.578Z,8.80
2017-11-22T18:42:56.984Z,8.80
2017-11-22T18:45:24.394Z,8.70
2017-11-22T18:47:51.811Z,8.70
2017-11-22T18:50:19.995Z,8.80
2017-11-22T18:52:48.194Z,8.80
2017-11-22T18:55:15.613Z,8.80
2017-11-22T18:57:43.782Z,8.80
2017-11-22T19:00:11.202Z,8.80
2017-11-22T19:02:38.612Z,8.90
2017-11-22T19:05:06.791Z,8.90
2017-11-22T19:07:34.971Z,8.90
2017-11-22T19:10:02.379Z,8.90
2017-11-22T19:12:29.795Z,8.90
2017-11-22T19:14:57.203Z,8.90
2017-11-22T19:17:24.629Z,9.10
2017-11-22T19:19:52.031Z,9.00
2017-11-22T19:22:20.211Z,8.90
2017-11-22T19:24:48.475Z,8.90
2017-11-22T19:27:16.655Z,8.90
2017-11-22T19:29:44.822Z,9.00
2017-11-22T19:32:12.236Z,9.00
2017-11-22T19:34:39.643Z,9.00
2017-11-22T19:37:07.860Z,9.10
2017-11-22T19:39:35.262Z,9.00
2017-11-22T19:42:03.485Z,9.10
2017-11-22T19:44:30.948Z,9.10
2017-11-22T19:46:58.367Z,9.10
2017-11-22T19:49:26.535Z,9.30
2017-11-22T19:51:54.715Z,9.20
2017-11-22T19:54:22.908Z,9.20
2017-11-22T19:56:50.338Z,9.20
2017-11-22T19:59:18.499Z,9.20
2017-11-22T20:01:45.932Z,9.20
2017-11-22T20:04:13.371Z,9.20
2017-11-22T20:06:40.783Z,9.10
2017-11-22T20:09:08.963Z,9.00
2017-11-22T20:11:37.671Z,9.00
2017-11-22T20:14:05.316Z,9.00
2017-11-22T20:16:33.491Z,9.00
2017-11-22T20:19:00.911Z,9.00
2017-11-22T20:21:28.323Z,9.00
2017-11-22T20:23:55.739Z,8.90
2017-11-22T20:26:24.276Z,9.10
2017-11-22T20:28:51.675Z,9.10
2017-11-22T20:31:19.848Z,9.20
2017-11-22T20:33:47.575Z,9.20
2017-11-22T20:36:14.992Z,9.30
2017-11-22T20:38:42.398Z,9.40
2017-11-22T20:41:09.811Z,9.40
2017-11-22T20:43:37.223Z,9.30
2017-11-22T20:46:04.641Z,9.40
2017-11-22T20:48:32.055Z,9.60
2017-11-22T20:51:00.224Z,9.80
2017-11-22T20:53:28.399Z,9.80
2017-11-22T20:55:55.802Z,9.80
2017-11-22T20:58:23.203Z,9.90
2017-11-22T21:00:50.619Z,9.90
2017-11-22T21:03:18.040Z,10.10
2017-11-22T21:05:45.528Z,10.10
2017-11-22T21:08:12.935Z,10.20
2017-11-22T21:10:41.115Z,10.30
2017-11-22T21:13:09.291Z,10.30
2017-11-22T21:15:37.479Z,10.40
2017-11-22T21:18:04.883Z,10.40
2017-11-22T21:20:32.303Z,10.40
2017-11-22T21:22:59.715Z,10.40
2017-11-22T21:25:27.131Z,10.40
2017-11-22T21:27:54.542Z,10.40
2017-11-22T21:30:22.720Z,9.80
2017-11-22T21:32:50.903Z,9.70
2017-11-22T21:35:18.308Z,9.70
2017-11-22T21:37:45.724Z,9.50
2017-11-22T21:40:13.122Z,9.30
2017-11-22T21:42:41.308Z,9.20
2017-11-22T21:45:08.723Z,9.20
2017-11-22T21:47:36.131Z,9.30
2017-11-22T21:50:03.543Z,9.40
2017-11-22T21:52:30.963Z,9.40
2017-11-22T21:54:59.140Z,9.70
2017-11-22T21:57:27.331Z,9.80
2017-11-22T21:59:54.731Z,9.70
2017-11-22T22:02:22.764Z,9.70
2017-11-22T22:04:50.176Z,9.60
2017-11-22T22:07:17.581Z,9.60
2017-11-22T22:09:44.991Z,9.70
2017-11-22T22:12:13.167Z,9.60
2017-11-22T22:14:41.347Z,9.60
2017-11-22T22:17:09.516Z,9.60
2017-11-22T22:19:37.699Z,9.80
2017-11-22T22:22:05.876Z,9.80
2017-11-22T22:24:33.292Z,9.80
2017-11-22T22:27:00.700Z,9.80
2017-11-22T22:29:28.109Z,9.90
2017-11-22T22:31:55.528Z,9.90
2017-11-22T22:34:22.945Z,9.90
2017-11-22T22:36:51.126Z,10.00
2017-11-22T22:39:19.306Z,10.00
2017-11-22T22:41:46.731Z,10.00
2017-11-22T22:44:14.144Z,10.00
2017-11-22T22:46:41.568Z,10.00
2017-11-22T22:49:09.748Z,9.90
2017-11-22T22:51:37.163Z,9.90
2017-11-22T22:54:04.582Z,9.90
2017-11-22T22:56:31.988Z,9.80
2017-11-22T22:59:00.159Z,9.70
2017-11-22T23:01:27.579Z,9.70
2017-11-22T23:03:54.995Z,9.70
2017-11-22T23:06:23.180Z,9.70
2017-11-22T23:08:50.587Z,9.70
2017-11-22T23:11:17.996Z,9.70
2017-11-22T23:13:45.404Z,9.70
2017-11-22T23:16:13.587Z,9.70
2017-11-22T23:18:40.998Z,9.60
2017-11-22T23:21:08.865Z,9.60
2017-11-22T23:23:36.271Z,9.60
2017-11-22T23:26:03.676Z,9.50
2017-11-22T23:28:31.087Z,9.40
2017-11-22T23:30:59.258Z,8.90
2017-11-22T23:33:27.442Z,8.70
2017-11-22T23:35:55.611Z,8.50
2017-11-22T23:38:23.803Z,8.50
2017-11-22T23:40:51.216Z,8.40
2017-11-22T23:43:18.641Z,8.50
2017-11-22T23:45:46.049Z,8.40
2017-11-22T23:48:13.488Z,8.40
2017-11-22T23:50:40.883Z,8.30
2017-11-22T23:53:08.296Z,8.10
2017-11-22T23:55:35.703Z,8.30
2017-11-22T23:58:03.119Z,8.40
